Time;durP1;ratioP1;P1;durP2;ratioP2;P2;SDS_P1;SDS_P2;PMS_P1;PMS_P2;Temp;Humidity;BMP_temperature;BMP_pressure;BME280_temperature;BME280_humidity;BME280_pressure;Samples;Min_cycle;Max_cycle;Signal;HPM_P1;HPM_P2
2022/09/14 00:01:19;;;;;;;11.35;6.88;;;11.30;99.90;;;;;;5054560;28;20036;-79
2022/09/14 00:03:45;;;;;;;9.60;6.38;;;11.30;99.90;;;;;;5054738;28;20149;-77
2022/09/14 00:06:14;;;;;;;11.85;7.70;;;11.30;99.90;;;;;;5054909;28;20094;-77
2022/09/14 00:08:40;;;;;;;11.23;7.72;;;11.30;99.90;;;;;;5072197;28;20048;-77
2022/09/14 00:11:13;;;;;;;16.52;9.95;;;11.30;99.90;;;;;;5054748;28;20303;-77
2022/09/14 00:13:41;;;;;;;15.82;8.93;;;11.40;99.90;;;;;;5054649;28;20450;-77
2022/09/14 00:16:14;;;;;;;16.73;10.45;;;11.40;99.90;;;;;;5072174;28;20047;-79
2022/09/14 00:18:41;;;;;;;8.73;4.82;;;11.50;99.90;;;;;;5071804;28;20388;-78
2022/09/14 00:21:09;;;;;;;9.27;4.90;;;11.50;99.90;;;;;;5072054;28;20047;-79
2022/09/14 00:23:37;;;;;;;7.13;4.80;;;11.60;99.90;;;;;;5053587;28;20044;-77
2022/09/14 00:26:09;;;;;;;10.90;6.05;;;11.60;99.90;;;;;;5038069;28;20059;-77
2022/09/14 00:28:37;;;;;;;10.55;5.82;;;11.50;99.90;;;;;;5054511;28;20098;-77
2022/09/14 00:31:04;;;;;;;12.65;6.57;;;11.50;99.90;;;;;;5054769;28;20353;-79
2022/09/14 00:33:32;;;;;;;9.65;5.63;;;11.60;99.90;;;;;;5072013;28;20063;-78
2022/09/14 00:36:04;;;;;;;9.63;6.57;;;11.60;99.90;;;;;;5071806;28;20041;-77
2022/09/14 00:38:29;;;;;;;13.82;7.32;;;11.50;99.90;;;;;;5054372;28;20044;-78
2022/09/14 00:40:57;;;;;;;15.82;7.88;;;11.50;99.90;;;;;;5054318;28;20062;-77
2022/09/14 00:43:23;;;;;;;18.95;8.93;;;11.40;99.90;;;;;;5054318;28;20048;-78
2022/09/14 00:45:49;;;;;;;13.18;7.05;;;11.50;99.90;;;;;;5071917;28;20062;-77
2022/09/14 00:48:15;;;;;;;15.80;8.85;;;11.40;99.90;;;;;;5055158;28;20477;-77
2022/09/14 00:50:41;;;;;;;16.65;6.70;;;11.40;99.90;;;;;;5091902;28;20098;-77
2022/09/14 00:53:07;;;;;;;14.85;8.20;;;11.40;99.90;;;;;;5074383;28;20044;-78
2022/09/14 00:55:32;;;;;;;10.43;6.72;;;11.40;99.90;;;;;;5074202;28;20051;-78
2022/09/14 00:57:59;;;;;;;14.85;8.88;;;11.40;99.90;;;;;;5074448;28;20181;-78
2022/09/14 01:00:28;;;;;;;11.18;7.43;;;11.40;99.90;;;;;;5091957;28;20032;-79
2022/09/14 01:02:54;;;;;;;17.10;10.35;;;11.50;99.90;;;;;;5091984;28;20051;-77
2022/09/14 01:05:41;;;;;;;23.75;10.68;;;11.40;99.90;;;;;;5091772;28;20048;-79
2022/09/14 01:08:25;;;;;;;19.52;9.93;;;11.50;99.90;;;;;;5091183;28;20066;-77
2022/09/14 01:11:14;;;;;;;17.58;9.88;;;11.50;99.90;;;;;;5091943;28;20047;-78
2022/09/14 01:14:15;;;;;;;16.90;8.00;;;11.50;99.90;;;;;;5091538;28;20040;-78
2022/09/14 01:17:00;;;;;;;15.88;8.45;;;11.50;99.90;;;;;;5077923;28;20083;-77
2022/09/14 01:20:00;;;;;;;12.35;7.35;;;11.60;99.90;;;;;;5074205;28;20047;-77
2022/09/14 01:23:04;;;;;;;16.13;8.30;;;11.60;99.90;;;;;;5074171;28;20513;-77
2022/09/14 01:25:43;;;;;;;12.90;8.35;;;11.60;99.90;;;;;;5072686;28;20483;-77
2022/09/14 01:28:36;;;;;;;10.93;7.75;;;11.60;99.90;;;;;;5091754;28;20365;-76
2022/09/14 01:31:10;;;;;;;13.02;8.25;;;11.60;99.90;;;;;;5029834;28;20062;-78
2022/09/14 01:33:42;;;;;;;13.23;7.75;;;11.70;99.90;;;;;;5073971;28;20039;-78
2022/09/14 01:36:11;;;;;;;9.63;7.45;;;11.70;99.90;;;;;;5095276;28;20165;-78
2022/09/14 01:38:39;;;;;;;11.63;7.78;;;11.80;99.90;;;;;;5077766;28;20055;-77
2022/09/14 01:41:09;;;;;;;12.20;6.40;;;11.90;99.90;;;;;;5077514;28;20040;-78
2022/09/14 01:43:45;;;;;;;13.60;8.32;;;11.90;99.90;;;;;;5095095;28;20039;-78
2022/09/14 01:46:19;;;;;;;17.02;8.48;;;12.00;99.90;;;;;;5077198;28;20131;-77
2022/09/14 01:48:48;;;;;;;12.70;8.70;;;12.10;99.90;;;;;;5072250;28;20122;-79
2022/09/14 01:51:21;;;;;;;14.07;8.57;;;12.10;99.90;;;;;;5074873;28;20048;-77
2022/09/14 01:53:52;;;;;;;11.23;7.30;;;12.20;99.90;;;;;;5074638;28;20056;-77
2022/09/14 01:56:23;;;;;;;10.73;6.78;;;12.30;99.90;;;;;;5056855;28;20362;-77
2022/09/14 01:59:15;;;;;;;11.73;7.32;;;12.30;99.90;;;;;;5074857;28;20049;-78
2022/09/14 02:01:56;;;;;;;12.18;7.25;;;12.40;99.90;;;;;;5056510;28;20051;-77
2022/09/14 02:04:34;;;;;;;14.02;7.15;;;12.40;99.90;;;;;;5074517;28;20036;-78
2022/09/14 02:07:00;;;;;;;10.43;7.28;;;12.40;99.90;;;;;;5056903;28;20109;-78
2022/09/14 02:09:26;;;;;;;12.70;6.82;;;12.50;99.90;;;;;;5074480;28;20425;-78
2022/09/14 02:11:54;;;;;;;13.70;7.45;;;12.50;99.90;;;;;;5057009;28;20058;-78
2022/09/14 02:14:21;;;;;;;10.30;7.20;;;12.50;99.90;;;;;;5056997;28;20066;-79
2022/09/14 02:16:47;;;;;;;15.70;7.88;;;12.50;99.90;;;;;;5074247;28;20127;-78
2022/09/14 02:19:13;;;;;;;12.30;7.88;;;12.50;99.90;;;;;;5056704;28;20123;-78
2022/09/14 02:21:39;;;;;;;13.43;7.63;;;12.50;99.90;;;;;;5074206;28;20048;-79
2022/09/14 02:24:06;;;;;;;10.52;7.30;;;12.50;99.90;;;;;;5074376;28;20044;-77
2022/09/14 02:26:34;;;;;;;13.27;6.75;;;12.50;99.90;;;;;;5040109;28;20044;-78
2022/09/14 02:28:59;;;;;;;10.38;6.68;;;12.50;99.90;;;;;;5056597;28;20072;-79
2022/09/14 02:31:50;;;;;;;11.50;5.55;;;12.50;99.90;;;;;;5056465;28;20087;-78
2022/09/14 02:34:50;;;;;;;12.38;7.15;;;12.50;99.90;;;;;;5056408;28;20044;-78
2022/09/14 02:37:54;;;;;;;9.50;6.38;;;12.60;99.90;;;;;;5056221;28;20082;-77
2022/09/14 02:40:34;;;;;;;12.85;6.57;;;12.60;99.90;;;;;;5043767;28;20370;-77
2022/09/14 02:43:09;;;;;;;9.45;5.90;;;12.60;99.90;;;;;;5056444;28;20048;-78
2022/09/14 02:45:56;;;;;;;12.52;6.65;;;12.60;99.90;;;;;;5072586;28;20513;-77
2022/09/14 02:48:39;;;;;;;8.82;6.38;;;12.60;99.90;;;;;;5039681;28;20041;-77
2022/09/14 02:51:30;;;;;;;9.60;6.03;;;12.60;99.90;;;;;;5056391;28;20056;-78
2022/09/14 02:54:35;;;;;;;9.60;5.95;;;12.60;99.90;;;;;;5073459;28;20040;-77
2022/09/14 02:57:02;;;;;;;10.70;6.20;;;12.60;99.90;;;;;;5039094;28;20067;-78
2022/09/14 02:59:29;;;;;;;10.55;6.40;;;12.70;99.90;;;;;;5073373;28;20362;-77
2022/09/14 03:01:55;;;;;;;12.90;7.40;;;12.70;99.90;;;;;;5055866;28;20124;-78
2022/09/14 03:04:21;;;;;;;12.93;7.60;;;12.70;99.90;;;;;;5073275;28;20098;-78
2022/09/14 03:06:47;;;;;;;9.63;6.57;;;12.70;99.90;;;;;;5073115;28;20080;-77
2022/09/14 03:09:13;;;;;;;10.43;6.43;;;12.80;99.90;;;;;;5072916;28;20091;-79
2022/09/14 03:11:39;;;;;;;13.43;7.13;;;12.80;99.90;;;;;;5055914;28;20052;-78
2022/09/14 03:14:05;;;;;;;11.48;7.15;;;12.80;99.90;;;;;;5055851;28;20063;-78
2022/09/14 03:16:31;;;;;;;9.70;6.68;;;12.80;99.90;;;;;;5055623;28;20131;-76
2022/09/14 03:18:57;;;;;;;12.23;6.03;;;12.70;99.90;;;;;;5055617;28;20102;-77
2022/09/14 03:21:22;;;;;;;9.68;6.43;;;12.70;99.90;;;;;;5055662;28;20075;-78
2022/09/14 03:23:50;;;;;;;8.52;5.15;;;12.70;99.90;;;;;;5055297;28;20410;-78
2022/09/14 03:26:18;;;;;;;10.68;5.20;;;12.60;99.90;;;;;;5073073;28;20819;-81
2022/09/14 03:28:48;;;;;;;12.90;6.07;;;12.60;99.90;;;;;;5076377;28;20505;-76
2022/09/14 03:31:14;;;;;;;;;;;12.50;99.90;;;;;;5059569;28;20068;-76
2022/09/14 03:33:40;;;;;;;11.98;6.38;;;12.50;99.90;;;;;;5058980;28;20022;-76
2022/09/14 03:36:15;;;;;;;16.00;6.40;;;12.50;99.90;;;;;;5058470;28;20458;-78
2022/09/14 03:38:45;;;;;;;10.68;6.50;;;12.50;99.90;;;;;;5072454;28;20032;-79
2022/09/14 03:41:12;;;;;;;15.27;7.35;;;12.50;99.90;;;;;;5072665;28;20444;-78
2022/09/14 03:43:37;;;;;;;13.32;6.68;;;12.50;99.90;;;;;;5055270;28;20048;-78
2022/09/14 03:46:10;;;;;;;14.35;7.78;;;12.50;99.90;;;;;;5072422;28;20353;-77
2022/09/14 03:48:36;;;;;;;13.20;7.30;;;12.50;99.90;;;;;;5056674;28;20123;-78
2022/09/14 03:51:04;;;;;;;9.23;6.20;;;12.50;99.90;;;;;;5092503;28;20048;-78
2022/09/14 03:53:30;;;;;;;14.02;7.53;;;12.50;99.90;;;;;;5092741;28;20044;-80
2022/09/14 03:55:56;;;;;;;13.98;8.27;;;12.50;99.90;;;;;;5058299;28;20032;-79
2022/09/14 03:58:22;;;;;;;11.07;7.88;;;12.50;99.90;;;;;;5092206;28;20049;-77
2022/09/14 04:00:48;;;;;;;12.35;7.20;;;12.50;99.90;;;;;;5075000;28;20104;-79
2022/09/14 04:03:15;;;;;;;12.57;7.72;;;12.50;99.90;;;;;;5074968;28;20036;-78
2022/09/14 04:05:40;;;;;;;13.73;8.38;;;12.50;99.90;;;;;;5074735;28;20072;-78
2022/09/14 04:08:06;;;;;;;12.13;8.23;;;12.50;99.90;;;;;;5092429;28;20091;-77
2022/09/14 04:10:32;;;;;;;15.38;8.27;;;12.50;99.90;;;;;;5075022;28;20076;-78
2022/09/14 04:12:58;;;;;;;16.52;8.10;;;12.60;99.90;;;;;;5074692;28;20102;-78
2022/09/14 04:15:24;;;;;;;11.23;7.05;;;12.60;99.90;;;;;;5074690;28;20082;-78
2022/09/14 04:17:50;;;;;;;12.00;7.97;;;12.60;99.90;;;;;;5092088;28;20043;-77
2022/09/14 04:20:17;;;;;;;12.75;6.75;;;12.60;99.90;;;;;;5074647;28;20035;-79
2022/09/14 04:22:44;;;;;;;12.27;7.55;;;12.60;99.90;;;;;;5057944;28;20052;-77
2022/09/14 04:25:10;;;;;;;11.00;6.55;;;12.70;99.90;;;;;;5091958;28;20449;-79
2022/09/14 04:27:36;;;;;;;10.30;6.35;;;12.60;99.90;;;;;;5074575;28;20112;-78
2022/09/14 04:30:04;;;;;;;12.63;6.68;;;12.70;99.90;;;;;;5092025;28;20040;-79
2022/09/14 04:32:30;;;;;;;14.10;6.50;;;12.70;99.90;;;;;;5092044;28;20457;-77
2022/09/14 04:34:56;;;;;;;15.27;6.57;;;12.70;99.90;;;;;;5074465;28;20044;-78
2022/09/14 04:37:22;;;;;;;13.30;7.03;;;12.70;99.90;;;;;;5074394;28;20051;-77
2022/09/14 04:39:47;;;;;;;13.25;7.68;;;12.70;99.90;;;;;;5092189;28;20055;-78
2022/09/14 04:42:13;;;;;;;13.07;7.32;;;12.80;99.90;;;;;;5057851;28;20048;-78
2022/09/14 04:44:39;;;;;;;15.35;8.07;;;12.90;99.90;;;;;;5074522;28;20100;-78
2022/09/14 04:47:05;;;;;;;10.98;7.13;;;12.90;99.90;;;;;;5092007;28;20516;-80
2022/09/14 04:49:31;;;;;;;12.55;7.68;;;12.90;99.90;;;;;;5091665;28;20419;-78
2022/09/14 04:51:57;;;;;;;11.70;6.88;;;12.90;99.90;;;;;;5074561;28;20053;-78
2022/09/14 04:54:22;;;;;;;13.70;7.13;;;12.90;99.90;;;;;;5092070;28;20048;-78
2022/09/14 04:56:48;;;;;;;8.15;6.53;;;13.00;99.90;;;;;;5091896;28;20058;-78
2022/09/14 04:59:14;;;;;;;11.05;7.82;;;13.00;99.90;;;;;;5091925;28;20090;-77
2022/09/14 05:01:42;;;;;;;11.38;7.57;;;13.00;99.90;;;;;;5091876;28;20051;-78
2022/09/14 05:04:10;;;;;;;12.70;7.25;;;13.00;99.90;;;;;;5074317;28;20121;-78
2022/09/14 05:06:39;;;;;;;13.43;7.60;;;13.00;99.90;;;;;;5092174;28;20056;-78
2022/09/14 05:09:11;;;;;;;13.13;7.32;;;13.10;99.90;;;;;;5075294;28;20043;-78
2022/09/14 05:11:37;;;;;;;13.88;7.88;;;13.10;99.90;;;;;;5078202;28;20079;-78
2022/09/14 05:14:04;;;;;;;13.38;7.53;;;13.10;99.90;;;;;;5078033;28;20568;-78
2022/09/14 05:16:34;;;;;;;12.65;6.80;;;13.10;99.90;;;;;;5095510;28;20040;-76
2022/09/14 05:19:02;;;;;;;13.32;7.65;;;13.10;99.90;;;;;;5077911;28;20111;-76
2022/09/14 05:21:30;;;;;;;12.50;6.78;;;13.10;99.90;;;;;;5095555;28;20047;-80
2022/09/14 05:23:59;;;;;;;12.15;7.95;;;13.20;99.90;;;;;;5095572;28;20048;-79
2022/09/14 05:26:26;;;;;;;13.30;7.55;;;13.20;99.90;;;;;;5077742;28;20047;-78
2022/09/14 05:28:54;;;;;;;10.57;6.82;;;13.20;99.90;;;;;;5077943;28;20445;-78
2022/09/14 05:31:21;;;;;;;9.93;6.28;;;13.20;99.90;;;;;;5077452;28;20039;-79
2022/09/14 05:33:47;;;;;;;11.10;6.97;;;13.20;99.90;;;;;;5077921;28;20457;-78
2022/09/14 05:36:12;;;;;;;14.20;6.75;;;13.30;99.90;;;;;;5060955;28;20365;-78
2022/09/14 05:38:39;;;;;;;14.07;7.63;;;13.20;99.90;;;;;;5077605;28;20046;-78
2022/09/14 05:41:06;;;;;;;16.08;7.53;;;13.30;99.90;;;;;;5077794;28;20040;-78
2022/09/14 05:43:32;;;;;;;11.50;7.20;;;13.30;99.90;;;;;;5077719;28;20044;-78
2022/09/14 05:46:07;;;;;;;11.38;7.13;;;13.30;99.90;;;;;;5077313;28;20155;-78
2022/09/14 05:48:34;;;;;;;12.73;7.47;;;13.40;99.90;;;;;;5077378;28;20043;-78
2022/09/14 05:51:08;;;;;;;14.10;6.63;;;13.40;99.90;;;;;;5082682;28;20048;-77
2022/09/14 05:53:34;;;;;;;9.50;6.22;;;13.40;99.90;;;;;;5077344;28;20050;-78
2022/09/14 05:56:12;;;;;;;8.13;6.20;;;13.40;99.90;;;;;;5077086;28;20379;-78
2022/09/14 05:58:40;;;;;;;11.07;6.40;;;13.50;99.90;;;;;;5077137;28;20044;-77
2022/09/14 06:01:11;;;;;;;13.68;6.70;;;13.50;99.90;;;;;;5077366;28;20040;-77
2022/09/14 06:03:37;;;;;;;11.20;6.90;;;13.50;99.90;;;;;;5094703;28;20079;-77
2022/09/14 06:06:05;;;;;;;12.20;7.35;;;13.50;99.90;;;;;;5094882;28;20090;-77
2022/09/14 06:08:31;;;;;;;11.38;5.95;;;13.60;99.90;;;;;;5077194;28;20044;-77
2022/09/14 06:11:22;;;;;;;14.63;7.28;;;13.60;99.90;;;;;;5094860;28;20040;-78
2022/09/14 06:13:48;;;;;;;;;;;13.70;99.90;;;;;;5095411;28;20419;-80
2022/09/14 06:16:17;;;;;;;13.13;6.82;;;13.70;99.90;;;;;;5094830;28;19919;-79
2022/09/14 06:18:44;;;;;;;10.10;6.60;;;13.80;99.90;;;;;;5094823;28;20081;-78
2022/09/14 06:21:14;;;;;;;10.65;6.30;;;13.90;99.90;;;;;;5077001;28;20106;-78
2022/09/14 06:23:40;;;;;;;12.00;6.90;;;13.90;99.90;;;;;;5094414;28;20047;-78
2022/09/14 06:26:06;;;;;;;12.25;6.78;;;14.00;99.90;;;;;;5076947;28;20044;-78
2022/09/14 06:28:33;;;;;;;9.23;6.60;;;14.10;99.90;;;;;;5076971;28;20059;-77
2022/09/14 06:30:59;;;;;;;9.73;7.05;;;14.20;99.90;;;;;;5094777;28;20057;-78
2022/09/14 06:33:25;;;;;;;13.35;7.25;;;14.30;99.90;;;;;;5076649;28;20052;-79
2022/09/14 06:36:06;;;;;;;10.65;7.00;;;14.30;99.90;;;;;;5076649;28;20066;-78
2022/09/14 06:38:32;;;;;;;9.80;6.32;;;14.40;99.90;;;;;;5094296;28;20086;-78
2022/09/14 06:41:01;;;;;;;10.15;6.55;;;14.50;99.90;;;;;;5094317;28;20089;-80
2022/09/14 06:43:30;;;;;;;8.05;6.00;;;14.50;99.90;;;;;;5076756;28;20050;-79
2022/09/14 06:46:18;;;;;;;10.80;6.65;;;14.60;99.90;;;;;;5094325;28;20449;-79
2022/09/14 06:49:09;;;;;;;8.88;5.60;;;14.70;99.90;;;;;;5093962;28;20052;-79
2022/09/14 06:51:42;;;;;;;11.27;5.85;;;14.80;99.90;;;;;;5094184;28;20048;-79
2022/09/14 06:54:10;;;;;;;8.35;5.63;;;14.90;99.90;;;;;;5094113;28;20541;-79
2022/09/14 06:56:38;;;;;;;11.43;5.55;;;14.90;99.90;;;;;;5076301;28;20127;-78
2022/09/14 06:59:06;;;;;;;10.32;4.70;;;15.10;99.90;;;;;;5094276;28;20120;-78
2022/09/14 07:01:32;;;;;;;11.05;4.82;;;15.10;99.90;;;;;;5076373;28;20056;-79
2022/09/14 07:04:00;;;;;;;7.05;4.15;;;15.20;99.90;;;;;;5076369;28;20349;-78
2022/09/14 07:06:29;;;;;;;8.68;4.45;;;15.30;99.90;;;;;;5076043;28;20044;-78
2022/09/14 07:08:55;;;;;;;8.48;3.83;;;15.40;99.90;;;;;;5076001;28;20055;-79
2022/09/14 07:11:24;;;;;;;10.82;4.05;;;15.50;99.90;;;;;;5059341;28;20047;-78
2022/09/14 07:13:53;;;;;;;6.53;3.80;;;15.60;99.90;;;;;;5075970;28;20119;-79
2022/09/14 07:16:21;;;;;;;7.72;3.45;;;15.60;99.90;;;;;;5075796;28;20048;-78
2022/09/14 07:18:46;;;;;;;6.05;3.80;;;15.70;99.90;;;;;;5093262;28;20035;-79
2022/09/14 07:21:13;;;;;;;8.63;4.32;;;15.70;99.90;;;;;;5075868;28;20145;-79
2022/09/14 07:23:43;;;;;;;10.63;4.63;;;15.80;99.90;;;;;;5075640;28;20089;-80
2022/09/14 07:26:12;;;;;;;6.65;4.13;;;15.90;99.90;;;;;;5075891;28;20400;-80
2022/09/14 07:28:38;;;;;;;9.60;4.80;;;15.90;99.90;;;;;;5075860;28;20117;-81
2022/09/14 07:31:12;;;;;;;8.07;3.60;;;16.00;99.90;;;;;;5075775;28;20127;-79
2022/09/14 07:33:38;;;;;;;6.75;4.10;;;16.00;99.90;;;;;;5058596;28;20123;-80
2022/09/14 07:36:06;;;;;;;9.45;4.60;;;16.10;99.90;;;;;;5075107;28;20529;-79
2022/09/14 07:38:33;;;;;;;5.10;3.40;;;16.10;99.90;;;;;;5075181;28;20048;-79
2022/09/14 07:40:59;;;;;;;6.97;3.53;;;16.20;99.90;;;;;;5075078;28;20101;-80
2022/09/14 07:43:26;;;;;;;8.80;4.63;;;16.30;99.90;;;;;;5092915;28;20047;-80
2022/09/14 07:45:52;;;;;;;8.15;3.47;;;16.40;99.90;;;;;;5058538;28;20039;-79
2022/09/14 07:48:19;;;;;;;5.45;2.65;;;16.50;99.90;;;;;;5075061;28;20323;-81
2022/09/14 07:50:46;;;;;;;9.25;3.50;;;16.50;99.90;;;;;;5055080;28;20059;-79
2022/09/14 07:53:12;;;;;;;8.13;3.40;;;16.60;99.90;;;;;;5072209;28;20103;-80
2022/09/14 07:55:39;;;;;;;6.40;3.05;;;16.60;99.90;;;;;;5038437;28;20044;-80
2022/09/14 07:58:06;;;;;;;7.43;3.38;;;16.60;99.90;;;;;;5054947;28;20115;-80
2022/09/14 08:00:32;;;;;;;7.05;3.25;;;16.60;99.90;;;;;;5072342;28;20109;-80
2022/09/14 08:02:58;;;;;;;8.07;2.03;;;16.60;99.90;;;;;;5054577;28;20107;-81
2022/09/14 08:05:25;;;;;;;4.40;1.98;;;16.60;99.90;;;;;;5054838;28;20044;-80
2022/09/14 08:07:56;;;;;;;6.55;2.28;;;16.60;99.90;;;;;;5072101;28;20044;-79
2022/09/14 08:10:23;;;;;;;4.32;2.10;;;16.60;99.90;;;;;;5072350;28;20113;-80
2022/09/14 08:12:53;;;;;;;3.92;1.63;;;16.60;99.90;;;;;;5054801;28;20040;-79
2022/09/14 08:15:19;;;;;;;;;;;16.70;99.90;;;;;;5055175;28;20055;-80
2022/09/14 08:17:45;;;;;;;4.43;1.70;;;16.80;99.90;;;;;;5054490;28;20372;-81
2022/09/14 08:20:11;;;;;;;4.50;2.20;;;16.80;99.90;;;;;;5054616;28;20040;-81
2022/09/14 08:22:38;;;;;;;4.90;2.00;;;16.90;99.90;;;;;;5072232;28;20361;-79
2022/09/14 08:25:04;;;;;;;5.32;1.67;;;16.90;99.90;;;;;;5054786;28;20040;-79
2022/09/14 08:27:30;;;;;;;6.85;1.83;;;17.00;99.90;;;;;;5054703;28;20098;-80
2022/09/14 08:29:55;;;;;;;6.18;1.88;;;17.10;99.90;;;;;;5054669;28;20508;-79
2022/09/14 08:32:21;;;;;;;5.07;1.23;;;17.20;99.90;;;;;;5054642;28;20036;-81
2022/09/14 08:34:47;;;;;;;4.10;1.35;;;17.20;99.90;;;;;;5071896;28;20051;-79
2022/09/14 08:37:14;;;;;;;5.75;1.48;;;17.20;99.90;;;;;;5054435;28;20099;-82
2022/09/14 08:39:40;;;;;;;2.65;1.13;;;17.30;99.90;;;;;;5054488;28;20318;-79
2022/09/14 08:42:14;;;;;;;3.92;0.98;;;17.30;99.90;;;;;;5054582;28;20127;-79
2022/09/14 08:44:45;;;;;;;5.38;1.20;;;17.40;99.90;;;;;;5073796;28;20047;-81
2022/09/14 08:47:13;;;;;;;2.65;0.85;;;17.50;99.90;;;;;;5058566;28;20080;-80
2022/09/14 08:49:56;;;;;;;5.35;1.15;;;17.50;99.90;;;;;;5075256;28;20164;-80
2022/09/14 08:52:24;;;;;;;2.70;0.70;;;17.60;99.90;;;;;;5057220;28;20343;-80
2022/09/14 08:54:54;;;;;;;2.15;0.70;;;17.60;99.90;;;;;;5074486;28;20041;-79
2022/09/14 08:57:56;;;;;;;2.67;0.52;;;17.80;99.90;;;;;;5056793;28;20048;-80
2022/09/14 09:00:30;;;;;;;4.25;0.95;;;18.10;99.90;;;;;;5035995;28;20087;-80
2022/09/14 09:03:17;;;;;;;2.28;0.63;;;18.20;99.90;;;;;;5057133;28;20044;-79
2022/09/14 09:06:01;;;;;;;3.80;0.50;;;18.50;99.90;;;;;;5065957;28;20041;-81
2022/09/14 09:09:11;;;;;;;3.83;0.98;;;18.80;99.90;;;;;;5046461;28;20084;-79
2022/09/14 09:11:42;;;;;;;;;;;19.00;99.90;;;;;;5029951;28;20053;-80
2022/09/14 09:14:32;;;;;;;4.05;0.75;;;19.30;99.90;;;;;;5022923;28;20302;-76
2022/09/14 09:17:03;;;;;;;1.33;0.55;;;19.50;99.90;;;;;;5053949;28;20469;-78
2022/09/14 09:19:38;;;;;;;5.38;0.93;;;19.60;99.90;;;;;;5036914;28;20041;-79
2022/09/14 09:22:15;;;;;;;5.57;1.35;;;19.80;99.90;;;;;;5036535;28;20366;-81
2022/09/14 09:24:50;;;;;;;4.55;0.70;;;19.80;99.90;;;;;;5053910;28;20068;-79
2022/09/14 09:27:16;;;;;;;2.90;0.80;;;19.80;99.90;;;;;;5054083;28;20082;-79
2022/09/14 09:29:42;;;;;;;3.20;0.68;;;19.90;99.90;;;;;;5053909;28;20045;-79
2022/09/14 09:32:23;;;;;;;5.80;1.13;;;19.90;99.90;;;;;;5053908;28;20045;-79
2022/09/14 09:34:50;;;;;;;4.38;0.75;;;20.50;99.90;;;;;;5036229;28;20399;-80
2022/09/14 09:37:19;;;;;;;5.45;1.27;;;21.00;99.90;;;;;;5036039;28;20041;-82
2022/09/14 09:39:45;;;;;;;4.70;0.65;;;21.30;99.90;;;;;;5036554;28;20041;-81
2022/09/14 09:42:23;;;;;;;2.95;0.88;;;21.50;99.90;;;;;;5053832;28;20047;-80
2022/09/14 09:44:54;;;;;;;4.47;0.80;;;21.90;99.90;;;;;;5036173;28;20052;-79
2022/09/14 09:47:36;;;;;;;4.72;0.85;;;22.10;99.90;;;;;;5053565;28;20363;-80
2022/09/14 09:50:20;;;;;;;5.05;0.60;;;22.00;99.90;;;;;;5021157;28;1326791;-80
2022/09/14 09:53:12;;;;;;;5.57;0.90;;;21.50;99.90;;;;;;5074811;28;20057;-81
2022/09/14 09:55:39;;;;;;;5.90;0.75;;;21.00;99.90;;;;;;5056942;28;20366;-80
2022/09/14 09:58:35;;;;;;;2.08;0.60;;;20.60;99.90;;;;;;5056805;28;20166;-79
2022/09/14 10:01:16;;;;;;;4.53;0.80;;;20.30;99.90;;;;;;5044416;28;20056;-79
2022/09/14 10:03:42;;;;;;;4.22;0.70;;;20.10;99.90;;;;;;5074394;28;20098;-81
2022/09/14 10:06:11;;;;;;;4.00;0.57;;;20.00;99.90;;;;;;5057056;28;20335;-79
2022/09/14 10:08:43;;;;;;;2.70;0.95;;;20.20;99.90;;;;;;5074205;28;20076;-79
2022/09/14 10:11:31;;;;;;;3.67;0.73;;;20.90;99.90;;;;;;5057011;28;20051;-79
2022/09/14 10:13:58;;;;;;;3.80;0.65;;;21.90;99.90;;;;;;5074200;28;20048;-80
2022/09/14 10:16:28;;;;;;;3.97;0.65;;;22.80;99.90;;;;;;5074179;28;20062;-81
2022/09/14 10:18:54;;;;;;;4.35;1.08;;;23.30;99.90;;;;;;5074101;28;20358;-80
2022/09/14 10:21:22;;;;;;;3.92;0.90;;;23.30;99.90;;;;;;5073910;28;20051;-80
2022/09/14 10:24:16;;;;;;;3.92;0.50;;;23.20;99.90;;;;;;5074415;28;20102;-81
2022/09/14 10:26:42;;;;;;;2.85;0.77;;;23.10;99.90;;;;;;5056705;28;20044;-80
2022/09/14 10:29:40;;;;;;;5.38;0.85;;;22.70;99.90;;;;;;5073937;28;20044;-79
2022/09/14 10:32:22;;;;;;;6.28;0.70;;;22.00;99.80;;;;;;5074084;28;20131;-78
2022/09/14 10:34:49;;;;;;;5.32;0.80;;;21.60;99.90;;;;;;5073898;28;20044;-79
2022/09/14 10:37:49;;;;;;;2.75;0.57;;;21.40;99.90;;;;;;5073698;28;20420;-79
2022/09/14 10:40:19;;;;;;;2.80;0.85;;;21.20;99.90;;;;;;5090188;28;20362;-79
2022/09/14 10:43:02;;;;;;;4.65;0.57;;;21.10;99.90;;;;;;5056398;28;20032;-81
2022/09/14 10:45:38;;;;;;;4.65;0.85;;;20.80;99.90;;;;;;5056394;28;20135;-80
2022/09/14 10:48:06;;;;;;;3.08;0.90;;;20.80;99.90;;;;;;5056281;28;20041;-80
2022/09/14 10:50:56;;;;;;;4.05;0.60;;;21.00;99.90;;;;;;5073189;28;20052;-81
2022/09/14 10:53:34;;;;;;;3.65;0.80;;;21.50;99.90;;;;;;5089827;28;20462;-82
2022/09/14 10:56:23;;;;;;;4.50;0.60;;;21.90;99.90;;;;;;5055975;28;20476;-81
2022/09/14 10:59:03;;;;;;;3.92;0.70;;;22.80;99.90;;;;;;5073271;28;20041;-80
2022/09/14 11:01:47;;;;;;;4.45;0.70;;;23.10;99.30;;;;;;5089693;28;20351;-81
2022/09/14 11:04:39;;;;;;;4.53;0.93;;;23.00;99.70;;;;;;5055973;28;20047;-79
2022/09/14 11:07:17;;;;;;;3.03;0.70;;;22.80;99.70;;;;;;5054854;28;20408;-79
2022/09/14 11:10:02;;;;;;;3.53;1.17;;;22.60;99.50;;;;;;5089483;28;20118;-80
2022/09/14 11:12:50;;;;;;;1.85;0.47;;;22.10;99.40;;;;;;5089379;28;20048;-79
2022/09/14 11:15:29;;;;;;;3.90;0.60;;;21.90;99.70;;;;;;5055652;28;20115;-79
2022/09/14 11:17:55;;;;;;;;;;;21.60;99.90;;;;;;5073499;28;20040;-80
2022/09/14 11:20:28;;;;;;;4.15;0.77;;;21.60;99.90;;;;;;5055744;28;20254;-80
2022/09/14 11:23:08;;;;;;;6.40;0.80;;;21.70;99.90;;;;;;5055625;28;20153;-80
2022/09/14 11:25:40;;;;;;;3.75;0.47;;;22.20;99.90;;;;;;5055320;28;20048;-80
2022/09/14 11:28:15;;;;;;;3.97;0.85;;;22.40;99.90;;;;;;5072645;28;20402;-80
2022/09/14 11:30:49;;;;;;;5.25;0.88;;;22.40;99.70;;;;;;5055631;28;20072;-80
2022/09/14 11:33:33;;;;;;;5.05;0.50;;;22.30;99.00;;;;;;5072790;28;20072;-78
2022/09/14 11:36:03;;;;;;;3.05;0.85;;;22.20;98.50;;;;;;5072558;28;20067;-80
2022/09/14 11:38:51;;;;;;;8.52;0.60;;;22.20;98.10;;;;;;5072314;28;20037;-81
2022/09/14 11:41:32;;;;;;;2.55;0.63;;;22.20;98.50;;;;;;5055471;28;20549;-80
2022/09/14 11:44:10;;;;;;;5.78;0.60;;;22.00;98.20;;;;;;5055314;28;20344;-81
2022/09/14 11:46:40;;;;;;;4.53;0.50;;;21.80;98.10;;;;;;5055154;28;20044;-81
2022/09/14 11:49:09;;;;;;;2.10;0.60;;;21.60;98.70;;;;;;5055066;28;20102;-80
2022/09/14 11:51:38;;;;;;;4.38;0.63;;;21.50;98.80;;;;;;5072536;28;20374;-79
2022/09/14 11:54:15;;;;;;;2.90;0.70;;;21.50;99.00;;;;;;5054907;28;20040;-80
2022/09/14 11:56:42;;;;;;;4.35;1.25;;;21.60;99.20;;;;;;5072218;28;20123;-80
2022/09/14 11:59:40;;;;;;;4.30;0.73;;;21.70;99.10;;;;;;5054959;28;20342;-79
2022/09/14 12:02:25;;;;;;;4.25;0.55;;;21.60;98.70;;;;;;5072156;28;20056;-80
2022/09/14 12:05:20;;;;;;;3.03;0.50;;;21.50;98.50;;;;;;5055052;28;20424;-81
2022/09/14 12:07:46;;;;;;;5.53;0.73;;;21.50;98.30;;;;;;5054681;28;20052;-81
2022/09/14 12:10:17;;;;;;;3.30;0.65;;;21.40;98.30;;;;;;5054627;28;20049;-80
2022/09/14 12:13:17;;;;;;;4.22;0.50;;;21.30;98.40;;;;;;5072274;28;20040;-79
2022/09/14 12:15:43;;;;;;;2.90;0.60;;;21.10;98.40;;;;;;5034618;28;20095;-79
2022/09/14 12:18:09;;;;;;;1.27;0.35;;;20.80;98.20;;;;;;5034088;28;20076;-79
2022/09/14 12:20:51;;;;;;;1.52;0.40;;;20.60;98.90;;;;;;5052090;28;20134;-80
2022/09/14 12:23:28;;;;;;;3.28;0.50;;;20.50;99.80;;;;;;5052097;28;20048;-80
2022/09/14 12:26:14;;;;;;;1.45;0.50;;;20.50;99.80;;;;;;5034769;28;20051;-80
2022/09/14 12:28:49;;;;;;;2.70;0.65;;;20.50;99.90;;;;;;5051862;28;20052;-80
2022/09/14 12:31:43;;;;;;;2.67;0.65;;;20.60;99.90;;;;;;5034542;28;20041;-81
2022/09/14 12:34:20;;;;;;;6.03;0.88;;;20.90;99.90;;;;;;5051894;28;20049;-80
2022/09/14 12:36:46;;;;;;;6.28;1.25;;;21.10;99.00;;;;;;5050945;28;20080;-80
2022/09/14 12:39:33;;;;;;;2.00;0.50;;;21.30;99.10;;;;;;5034738;28;20080;-80
2022/09/14 12:42:04;;;;;;;3.25;0.50;;;21.60;98.40;;;;;;5051874;28;20091;-81
2022/09/14 12:44:48;;;;;;;3.80;0.40;;;21.70;98.10;;;;;;5034500;28;20331;-80
2022/09/14 12:47:23;;;;;;;4.95;0.60;;;21.70;98.00;;;;;;5051592;28;20041;-80
2022/09/14 12:49:49;;;;;;;1.85;0.50;;;21.80;97.10;;;;;;5034277;28;20343;-81
2022/09/14 12:52:47;;;;;;;2.15;0.63;;;21.90;96.70;;;;;;5051746;28;20131;-80
2022/09/14 12:55:31;;;;;;;3.45;0.60;;;22.00;97.10;;;;;;5043468;28;20556;-81
2022/09/14 12:58:06;;;;;;;5.97;0.73;;;22.10;96.90;;;;;;5034284;28;20076;-79
2022/09/14 13:00:49;;;;;;;3.35;0.55;;;22.10;96.20;;;;;;5034472;28;20095;-81
2022/09/14 13:03:34;;;;;;;2.65;0.60;;;21.90;95.40;;;;;;5034273;28;20048;-79
2022/09/14 13:06:01;;;;;;;5.18;1.00;;;21.90;95.40;;;;;;5017804;28;20047;-80
2022/09/14 13:08:27;;;;;;;3.05;0.57;;;21.90;95.60;;;;;;5018041;28;20041;-80
2022/09/14 13:10:53;;;;;;;3.45;0.77;;;21.90;95.10;;;;;;5034361;28;20362;-80